Time;durP1;ratioP1;P1;durP2;ratioP2;P2;SDS_P1;SDS_P2;PMS_P1;PMS_P2;Temp;Humidity;BMP_temperature;BMP_pressure;BME280_temperature;BME280_humidity;BME280_pressure;Samples;Min_cycle;Max_cycle;Signal;HPM_P1;HPM_P2
2022/05/12 00:02:01;;;;;;;5.03;4.70;;;18.00;99.90;;;;;;5085925;28;20186;-78
2022/05/12 00:04:30;;;;;;;5.37;4.97;;;18.00;99.90;;;;;;5079510;28;20222;-78
2022/05/12 00:06:57;;;;;;;5.17;4.80;;;17.90;99.90;;;;;;5086324;28;20208;-78
2022/05/12 00:09:24;;;;;;;5.10;4.80;;;17.90;99.90;;;;;;5080675;28;20199;-79
2022/05/12 00:11:51;;;;;;;5.20;4.90;;;17.90;99.90;;;;;;5079822;28;20186;-78
2022/05/12 00:14:18;;;;;;;5.37;4.97;;;17.80;99.90;;;;;;5085048;28;20313;-79
2022/05/12 00:16:45;;;;;;;5.47;5.07;;;17.70;99.90;;;;;;5080024;28;20211;-79
2022/05/12 00:19:12;;;;;;;5.40;5.00;;;17.70;99.90;;;;;;5087276;28;20243;-79
2022/05/12 00:21:41;;;;;;;5.70;5.30;;;17.60;99.90;;;;;;5080138;28;20188;-77
2022/05/12 00:24:08;;;;;;;5.20;4.80;;;17.50;99.90;;;;;;5087882;28;20275;-79
2022/05/12 00:26:37;;;;;;;5.50;5.10;;;17.50;99.90;;;;;;5079858;28;20200;-78
2022/05/12 00:29:07;;;;;;;6.10;5.50;;;17.40;99.90;;;;;;5079778;28;20191;-77
2022/05/12 00:31:35;;;;;;;5.93;5.40;;;17.30;99.90;;;;;;5086423;28;20191;-79
2022/05/12 00:34:03;;;;;;;5.87;5.47;;;17.20;99.90;;;;;;5079882;28;20217;-78
2022/05/12 00:36:30;;;;;;;5.80;5.40;;;17.20;99.90;;;;;;5087258;28;20214;-79
2022/05/12 00:38:58;;;;;;;6.23;5.73;;;17.10;99.90;;;;;;5078396;28;20239;-78
2022/05/12 00:41:25;;;;;;;5.50;5.20;;;17.00;99.90;;;;;;5088023;28;20194;-79
2022/05/12 00:43:55;;;;;;;6.00;5.60;;;16.90;99.90;;;;;;5078447;28;20199;-78
2022/05/12 00:46:24;;;;;;;5.90;5.50;;;16.90;99.90;;;;;;5081292;28;20205;-77
2022/05/12 00:48:53;;;;;;;6.03;5.60;;;16.80;99.90;;;;;;5084205;28;20194;-78
2022/05/12 00:51:25;;;;;;;6.10;5.60;;;16.80;99.90;;;;;;5080572;28;20194;-79
2022/05/12 00:53:55;;;;;;;5.73;5.33;;;16.80;99.90;;;;;;5084754;28;20637;-78
2022/05/12 00:56:25;;;;;;;5.87;5.47;;;16.80;99.90;;;;;;5079829;28;20586;-78
2022/05/12 00:58:56;;;;;;;6.13;5.63;;;16.80;99.90;;;;;;5074097;28;20194;-77
2022/05/12 01:01:22;;;;;;;5.70;5.30;;;16.90;99.90;;;;;;5071568;28;20248;-79
2022/05/12 01:03:50;;;;;;;5.80;5.40;;;17.00;99.90;;;;;;5081817;28;20544;-79
2022/05/12 01:06:17;;;;;;;5.87;5.37;;;17.00;99.90;;;;;;5082564;28;20199;-79
2022/05/12 01:08:45;;;;;;;5.60;5.20;;;17.10;99.90;;;;;;5084640;28;20230;-79
2022/05/12 01:11:14;;;;;;;5.43;5.03;;;17.10;99.90;;;;;;5084772;28;20209;-79
2022/05/12 01:13:49;;;;;;;5.20;4.80;;;17.20;99.90;;;;;;5079723;28;20194;-77
2022/05/12 01:16:35;;;;;;;5.10;4.80;;;17.20;99.90;;;;;;5073111;28;20288;-79
2022/05/12 01:19:02;;;;;;;5.27;4.87;;;17.30;99.90;;;;;;5079728;28;20652;-78
2022/05/12 01:21:29;;;;;;;5.20;4.80;;;17.30;99.90;;;;;;5082330;28;20205;-79
2022/05/12 01:23:57;;;;;;;4.97;4.67;;;17.30;99.90;;;;;;5082905;28;20191;-79
2022/05/12 01:26:24;;;;;;;5.00;4.70;;;17.30;99.90;;;;;;5083459;28;20212;-79
2022/05/12 01:28:51;;;;;;;5.07;4.67;;;17.30;99.90;;;;;;5082822;28;20464;-79
2022/05/12 01:31:20;;;;;;;4.97;4.67;;;17.30;99.90;;;;;;5084426;28;20217;-80
2022/05/12 01:33:48;;;;;;;4.80;4.50;;;17.30;99.90;;;;;;5081000;28;20198;-78
2022/05/12 01:36:15;;;;;;;4.83;4.53;;;17.30;99.90;;;;;;5080216;28;20191;-79
2022/05/12 01:38:42;;;;;;;5.27;4.87;;;17.30;99.90;;;;;;5082008;28;20198;-79
2022/05/12 01:41:10;;;;;;;5.43;5.00;;;17.30;99.90;;;;;;5082388;28;20641;-78
2022/05/12 01:43:37;;;;;;;5.00;4.60;;;17.30;99.90;;;;;;5081044;28;20674;-76
2022/05/12 01:46:04;;;;;;;4.90;4.60;;;17.30;99.90;;;;;;5081060;28;20218;-78
2022/05/12 01:48:31;;;;;;;5.20;4.80;;;17.30;99.90;;;;;;5073379;28;20686;-79
2022/05/12 01:50:59;;;;;;;5.00;4.70;;;17.30;99.90;;;;;;5083734;28;20202;-79
2022/05/12 01:53:27;;;;;;;5.67;5.10;;;17.30;99.90;;;;;;5081218;28;20663;-77
2022/05/12 01:55:53;;;;;;;5.30;4.90;;;17.30;99.90;;;;;;5081982;28;20309;-80
2022/05/12 01:58:22;;;;;;;5.00;4.70;;;17.30;99.90;;;;;;5082325;28;20226;-79
2022/05/12 02:00:50;;;;;;;5.23;4.83;;;17.30;99.90;;;;;;5082757;28;20697;-78
2022/05/12 02:03:17;;;;;;;5.20;4.90;;;17.20;99.90;;;;;;5083155;28;20289;-78
2022/05/12 02:05:46;;;;;;;5.43;5.03;;;17.20;99.90;;;;;;5081022;28;20220;-79
2022/05/12 02:08:14;;;;;;;5.70;5.30;;;17.20;99.90;;;;;;5078616;28;20210;-79
2022/05/12 02:10:45;;;;;;;5.30;4.90;;;17.20;99.90;;;;;;5081598;28;20199;-78
2022/05/12 02:13:13;;;;;;;5.67;5.27;;;17.20;99.90;;;;;;5082078;28;20721;-79
2022/05/12 02:15:42;;;;;;;5.80;5.37;;;17.30;99.90;;;;;;5072684;28;20225;-79
2022/05/12 02:18:10;;;;;;;5.37;4.87;;;17.30;99.90;;;;;;5081163;28;20675;-78
2022/05/12 02:20:37;;;;;;;5.10;4.80;;;17.20;99.90;;;;;;5079260;28;20191;-78
2022/05/12 02:23:04;;;;;;;5.00;4.70;;;17.30;99.90;;;;;;5081177;28;20284;-78
2022/05/12 02:25:32;;;;;;;4.77;4.47;;;17.20;99.90;;;;;;5082718;28;20593;-79
2022/05/12 02:27:59;;;;;;;5.47;5.07;;;17.20;99.90;;;;;;5084910;28;20218;-79
2022/05/12 02:30:29;;;;;;;5.67;5.27;;;17.20;99.90;;;;;;5082604;28;20224;-78
2022/05/12 02:32:57;;;;;;;5.50;5.10;;;17.10;99.90;;;;;;5082054;28;20201;-78
2022/05/12 02:35:25;;;;;;;5.97;5.50;;;17.10;99.90;;;;;;5073707;28;20230;-78
2022/05/12 02:37:52;;;;;;;4.87;4.57;;;17.10;99.90;;;;;;5082238;28;20195;-79
2022/05/12 02:40:22;;;;;;;5.17;4.87;;;17.00;99.90;;;;;;5082446;28;20194;-77
2022/05/12 02:42:49;;;;;;;5.00;4.70;;;17.00;99.90;;;;;;5082378;28;20194;-78
2022/05/12 02:45:16;;;;;;;5.20;4.90;;;16.90;99.90;;;;;;5083535;28;20592;-77
2022/05/12 02:47:44;;;;;;;5.33;5.00;;;16.80;99.90;;;;;;5082847;28;20202;-78
2022/05/12 02:50:14;;;;;;;5.00;4.70;;;16.80;99.90;;;;;;5075242;28;20210;-80
2022/05/12 02:52:42;;;;;;;5.20;4.90;;;16.70;99.90;;;;;;5061916;28;20209;-80
2022/05/12 02:55:10;;;;;;;5.80;5.40;;;16.70;99.90;;;;;;5068563;28;20703;-79
2022/05/12 02:57:37;;;;;;;5.47;5.07;;;16.70;99.90;;;;;;5080245;28;20190;-78
2022/05/12 03:00:05;;;;;;;6.03;5.57;;;16.60;99.90;;;;;;5069952;28;20273;-78
2022/05/12 03:02:32;;;;;;;5.87;5.47;;;16.60;99.90;;;;;;5074970;28;20648;-77
2022/05/12 03:04:59;;;;;;;5.87;5.47;;;16.50;99.90;;;;;;5075314;28;20233;-80
2022/05/12 03:07:28;;;;;;;5.87;5.47;;;16.50;99.90;;;;;;5075440;28;20207;-79
2022/05/12 03:09:55;;;;;;;6.10;5.60;;;16.40;99.90;;;;;;5081100;28;20203;-82
2022/05/12 03:12:21;;;;;;;7.13;6.53;;;16.40;99.90;;;;;;5081498;28;20197;-82
2022/05/12 03:14:48;;;;;;;6.00;5.60;;;16.30;99.90;;;;;;5071042;28;20227;-81
2022/05/12 03:17:16;;;;;;;6.23;5.40;;;16.30;99.90;;;;;;5075942;28;20647;-81
2022/05/12 03:19:42;;;;;;;5.93;5.43;;;16.20;99.90;;;;;;5084176;28;20209;-79
2022/05/12 03:22:09;;;;;;;5.90;5.40;;;16.20;99.90;;;;;;5078918;28;20195;-80
2022/05/12 03:24:38;;;;;;;6.10;5.70;;;16.10;99.90;;;;;;5079518;28;20261;-79
2022/05/12 03:27:05;;;;;;;6.00;5.60;;;16.10;99.90;;;;;;5081014;28;20726;-80
2022/05/12 03:29:32;;;;;;;5.90;5.50;;;16.10;99.90;;;;;;5081046;28;20565;-81
2022/05/12 03:31:59;;;;;;;6.93;6.40;;;16.10;99.90;;;;;;5080815;28;20229;-80
2022/05/12 03:34:26;;;;;;;6.87;6.30;;;16.00;99.90;;;;;;5077554;28;20218;-82
2022/05/12 03:36:53;;;;;;;6.47;5.97;;;16.00;99.90;;;;;;5078012;28;20202;-81
2022/05/12 03:39:21;;;;;;;7.43;6.87;;;16.00;99.90;;;;;;5082075;28;20606;-83
2022/05/12 03:41:50;;;;;;;7.17;6.67;;;16.00;99.90;;;;;;5081014;28;20198;-83
2022/05/12 03:47:01;;;;;;;6.50;6.00;;;15.90;99.90;;;;;;5075728;28;20252;-81
2022/05/12 03:49:28;;;;;;;6.80;6.20;;;15.80;99.90;;;;;;5082639;28;20204;-79
2022/05/12 03:51:55;;;;;;;7.50;6.80;;;15.80;99.90;;;;;;5080503;28;20231;-78
2022/05/12 03:54:22;;;;;;;7.27;6.57;;;15.70;99.90;;;;;;5077301;28;20260;-78
2022/05/12 03:56:50;;;;;;;7.27;6.70;;;15.70;99.90;;;;;;5088063;28;20204;-79
2022/05/12 03:59:17;;;;;;;6.53;5.97;;;15.70;99.90;;;;;;5078154;28;20562;-77
2022/05/12 04:01:44;;;;;;;6.90;6.40;;;15.60;99.90;;;;;;5081392;28;20272;-77
2022/05/12 04:04:11;;;;;;;6.60;6.10;;;15.60;99.90;;;;;;5079488;28;20226;-77
2022/05/12 04:06:38;;;;;;;6.80;6.30;;;15.60;99.90;;;;;;5080619;28;20276;-77
2022/05/12 04:09:05;;;;;;;8.00;7.30;;;15.60;99.90;;;;;;5080250;28;20248;-78
2022/05/12 04:11:32;;;;;;;7.33;6.83;;;15.50;99.90;;;;;;5075858;28;20286;-78
2022/05/12 04:14:00;;;;;;;7.00;6.50;;;15.50;99.90;;;;;;5077911;28;20201;-78
2022/05/12 04:16:27;;;;;;;7.07;6.57;;;15.60;99.90;;;;;;5080294;28;20190;-77
2022/05/12 04:18:54;;;;;;;7.47;6.87;;;15.60;99.90;;;;;;5078780;28;20592;-78
2022/05/12 04:21:21;;;;;;;6.60;6.20;;;15.60;99.90;;;;;;5079795;28;20686;-77
2022/05/12 04:23:48;;;;;;;6.63;6.13;;;15.70;99.90;;;;;;5079891;28;20198;-77
2022/05/12 04:26:15;;;;;;;6.97;6.37;;;15.70;99.90;;;;;;5083454;28;20225;-77
2022/05/12 04:28:42;;;;;;;6.80;6.10;;;15.70;99.90;;;;;;5078736;28;20212;-77
2022/05/12 04:31:10;;;;;;;6.90;6.40;;;15.80;99.90;;;;;;5077622;28;20205;-77
2022/05/12 04:36:21;;;;;;;7.20;6.70;;;16.00;99.90;;;;;;5079903;28;20202;-77
2022/05/12 04:38:48;;;;;;;6.83;6.33;;;16.10;99.90;;;;;;5078422;28;20288;-78
2022/05/12 04:41:16;;;;;;;6.27;5.87;;;16.20;99.90;;;;;;5082695;28;20276;-77
2022/05/12 04:43:43;;;;;;;6.53;6.03;;;16.30;99.90;;;;;;5080329;28;20225;-76
2022/05/12 04:46:11;;;;;;;6.37;5.87;;;16.40;99.90;;;;;;5086878;28;20209;-78
2022/05/12 04:48:39;;;;;;;6.07;5.67;;;16.60;99.90;;;;;;5075444;28;20202;-77
2022/05/12 04:51:06;;;;;;;6.07;5.67;;;16.80;99.90;;;;;;5082558;28;20545;-78
2022/05/12 04:53:33;;;;;;;6.20;5.80;;;17.00;99.90;;;;;;5086463;28;20189;-78
2022/05/12 04:56:00;;;;;;;6.13;5.73;;;17.20;99.90;;;;;;5078505;28;20234;-78
2022/05/12 04:58:27;;;;;;;6.20;5.80;;;17.30;99.90;;;;;;5085429;28;20232;-78
2022/05/12 05:00:54;;;;;;;5.90;5.50;;;17.40;99.90;;;;;;5082011;28;20188;-78
2022/05/12 05:03:23;;;;;;;6.50;6.00;;;17.60;99.90;;;;;;5078659;28;20198;-78
2022/05/12 05:05:51;;;;;;;5.23;4.90;;;17.70;99.90;;;;;;5085929;28;20275;-78
2022/05/12 05:08:20;;;;;;;5.97;5.57;;;17.90;99.90;;;;;;5082375;28;20268;-78
2022/05/12 05:10:48;;;;;;;6.27;5.87;;;17.90;99.90;;;;;;5084451;28;20197;-76
2022/05/12 05:13:15;;;;;;;6.10;5.60;;;18.00;99.90;;;;;;5082461;28;20197;-77
2022/05/12 05:15:42;;;;;;;6.80;6.20;;;18.20;99.90;;;;;;5081018;28;20214;-77
2022/05/12 05:18:11;;;;;;;3.97;2.90;;;18.30;99.90;;;;;;5086403;28;20592;-78
2022/05/12 05:20:41;;;;;;;4.73;3.00;;;18.50;99.90;;;;;;5072393;28;20205;-78
2022/05/12 05:23:08;;;;;;;3.40;2.60;;;18.50;99.90;;;;;;5082379;28;20699;-77
2022/05/12 05:25:35;;;;;;;5.10;4.60;;;18.70;99.90;;;;;;5084055;28;20650;-77
2022/05/12 05:28:03;;;;;;;5.10;4.70;;;18.90;99.90;;;;;;5082844;28;20205;-77
2022/05/12 05:30:30;;;;;;;5.77;5.33;;;19.30;99.90;;;;;;5082648;28;20205;-78
2022/05/12 05:32:58;;;;;;;5.20;4.80;;;19.70;99.90;;;;;;5081426;28;20292;-77
2022/05/12 05:35:26;;;;;;;5.13;4.53;;;19.90;99.90;;;;;;5085048;28;20241;-77
2022/05/12 05:37:55;;;;;;;6.23;4.80;;;20.10;99.90;;;;;;5079484;28;20655;-77
2022/05/12 05:40:25;;;;;;;4.90;4.30;;;20.30;99.90;;;;;;5084487;28;20659;-77
2022/05/12 05:42:53;;;;;;;4.80;3.77;;;20.90;99.90;;;;;;5076281;28;20187;-78
2022/05/12 05:45:21;;;;;;;4.60;4.20;;;21.40;99.90;;;;;;5083683;28;20214;-79
2022/05/12 05:47:50;;;;;;;4.60;3.33;;;21.80;99.90;;;;;;5080085;28;20206;-77
2022/05/12 05:50:20;;;;;;;4.23;3.83;;;22.10;99.90;;;;;;5077560;28;20277;-78
2022/05/12 05:55:34;;;;;;;3.90;2.83;;;22.00;99.90;;;;;;5081400;28;20674;-78
2022/05/12 05:58:01;;;;;;;5.53;3.50;;;21.80;99.90;;;;;;5077510;28;20652;-78
2022/05/12 06:00:31;;;;;;;6.33;3.13;;;21.60;99.90;;;;;;5099303;28;20198;-78
2022/05/12 06:02:58;;;;;;;4.87;2.77;;;21.60;99.90;;;;;;5077032;28;20194;-79
2022/05/12 06:05:25;;;;;;;3.00;2.70;;;21.60;99.90;;;;;;5083690;28;20232;-77
2022/05/12 06:07:54;;;;;;;5.20;2.73;;;21.60;99.90;;;;;;5080725;28;20217;-77
2022/05/12 06:10:21;;;;;;;3.60;2.90;;;21.90;99.90;;;;;;5077980;28;20194;-78
2022/05/12 06:12:49;;;;;;;3.03;2.73;;;21.70;99.90;;;;;;5080855;28;20198;-77
2022/05/12 06:15:17;;;;;;;4.60;2.87;;;21.80;99.90;;;;;;5081946;28;20222;-79
2022/05/12 06:17:44;;;;;;;4.43;2.77;;;21.80;99.90;;;;;;5081930;28;20201;-78
2022/05/12 06:20:12;;;;;;;3.60;2.90;;;21.80;99.90;;;;;;5081764;28;20649;-77
2022/05/12 06:22:39;;;;;;;3.53;2.97;;;21.90;99.90;;;;;;5079238;28;20217;-78
2022/05/12 06:25:09;;;;;;;4.47;2.80;;;22.10;99.90;;;;;;5085118;28;20305;-77
2022/05/12 06:27:37;;;;;;;3.03;2.83;;;22.40;99.90;;;;;;5084532;28;20194;-79
2022/05/12 06:30:06;;;;;;;4.23;2.87;;;22.50;99.90;;;;;;5084937;28;20194;-77
2022/05/12 06:32:33;;;;;;;2.70;2.50;;;22.60;99.90;;;;;;5081974;28;20276;-79
2022/05/12 06:35:00;;;;;;;3.00;2.70;;;22.90;99.90;;;;;;5081635;28;20212;-78
2022/05/12 06:37:27;;;;;;;3.10;2.90;;;23.40;99.90;;;;;;5083053;28;20182;-79
2022/05/12 06:39:55;;;;;;;6.97;4.50;;;23.90;99.10;;;;;;5081467;28;20233;-79
2022/05/12 06:42:22;;;;;;;3.43;3.00;;;24.00;99.90;;;;;;5081445;28;20198;-77
2022/05/12 06:44:50;;;;;;;4.80;4.40;;;24.30;99.50;;;;;;5081366;28;20584;-77
2022/05/12 06:47:18;;;;;;;4.57;4.17;;;24.60;99.20;;;;;;5084953;28;20198;-78
2022/05/12 06:49:50;;;;;;;4.70;4.30;;;24.30;99.10;;;;;;5079632;28;20578;-79
2022/05/12 06:52:17;;;;;;;5.47;4.93;;;24.10;99.10;;;;;;5078570;28;20196;-78
2022/05/12 06:54:45;;;;;;;4.57;4.00;;;23.90;99.90;;;;;;5082053;28;20206;-77
2022/05/12 06:57:13;;;;;;;6.30;3.73;;;23.60;99.90;;;;;;5081173;28;20566;-79
2022/05/12 06:59:41;;;;;;;6.37;5.87;;;23.40;99.90;;;;;;5082008;28;20273;-79
2022/05/12 07:02:09;;;;;;;6.27;5.80;;;23.30;99.90;;;;;;5082224;28;20292;-78
2022/05/12 07:04:37;;;;;;;6.47;5.97;;;23.50;99.90;;;;;;5076587;28;20213;-79
2022/05/12 07:07:05;;;;;;;5.60;5.20;;;24.00;99.40;;;;;;5084033;28;20272;-79
2022/05/12 07:09:32;;;;;;;6.47;5.97;;;24.50;99.60;;;;;;5080054;28;20201;-79
2022/05/12 07:11:59;;;;;;;4.30;3.90;;;24.90;99.00;;;;;;5080122;28;20201;-78
2022/05/12 07:14:26;;;;;;;5.90;4.10;;;25.60;97.30;;;;;;5082004;28;20222;-78
2022/05/12 07:16:54;;;;;;;6.03;5.13;;;25.40;97.70;;;;;;5080652;28;20190;-78
2022/05/12 07:19:21;;;;;;;6.40;5.30;;;25.20;97.70;;;;;;5081446;28;20201;-77
2022/05/12 07:27:19;;;;;;;9.27;6.80;;;24.40;99.40;;;;;;5081839;28;20646;-79
2022/05/12 07:29:46;;;;;;;5.73;5.20;;;24.20;99.60;;;;;;5081473;28;20222;-77
2022/05/12 07:32:14;;;;;;;5.80;5.10;;;24.10;99.20;;;;;;5078871;28;20682;-78
2022/05/12 07:34:41;;;;;;;6.23;5.83;;;24.80;99.90;;;;;;5082929;28;20690;-79
2022/05/12 07:37:10;;;;;;;5.87;5.27;;;24.80;99.60;;;;;;5080754;28;20187;-77
2022/05/12 07:39:37;;;;;;;5.87;5.37;;;24.80;99.20;;;;;;5077277;28;20195;-77
2022/05/12 07:42:05;;;;;;;4.70;4.13;;;24.60;98.90;;;;;;5079380;28;20225;-78
2022/05/12 07:44:35;;;;;;;6.57;6.07;;;24.30;99.00;;;;;;5080946;28;20272;-77
2022/05/12 07:47:04;;;;;;;5.43;5.03;;;24.00;99.90;;;;;;5081820;28;20190;-79
2022/05/12 07:49:35;;;;;;;6.90;6.20;;;23.90;99.90;;;;;;5078920;28;20773;-78
2022/05/12 07:52:03;;;;;;;5.80;5.20;;;23.80;99.90;;;;;;5079355;28;20190;-78
2022/05/12 07:54:32;;;;;;;6.77;5.27;;;23.80;99.90;;;;;;5082072;28;20590;-77
2022/05/12 07:56:59;;;;;;;5.33;4.90;;;24.00;99.90;;;;;;5080737;28;20289;-78
2022/05/12 07:59:27;;;;;;;6.07;5.47;;;24.20;99.90;;;;;;5081421;28;20200;-78
2022/05/12 08:01:54;;;;;;;5.73;5.30;;;24.60;99.90;;;;;;5079965;28;20209;-78
2022/05/12 08:04:21;;;;;;;6.93;6.10;;;24.80;99.90;;;;;;5088746;28;20229;-76
2022/05/12 08:06:48;;;;;;;8.53;5.60;;;25.00;99.00;;;;;;5090056;28;20201;-78
2022/05/12 08:09:15;;;;;;;6.23;5.60;;;24.90;98.90;;;;;;5081445;28;20207;-79
2022/05/12 08:11:45;;;;;;;6.20;5.67;;;24.90;99.70;;;;;;5082098;28;20768;-77
2022/05/12 08:14:12;;;;;;;6.47;5.80;;;24.90;99.80;;;;;;5083595;28;20217;-79
2022/05/12 08:16:39;;;;;;;3.93;3.53;;;25.00;99.80;;;;;;5082088;28;20201;-77
2022/05/12 08:19:06;;;;;;;18.63;5.40;;;25.40;99.50;;;;;;5082803;28;20675;-78
2022/05/12 08:21:33;;;;;;;6.07;5.47;;;25.60;98.60;;;;;;5085949;28;20190;-78
2022/05/12 08:24:00;;;;;;;5.57;5.07;;;25.60;99.00;;;;;;5084040;28;20273;-78
2022/05/12 08:26:27;;;;;;;5.73;5.33;;;25.70;99.90;;;;;;5086182;28;20308;-79
2022/05/12 08:28:56;;;;;;;7.13;6.43;;;26.00;99.50;;;;;;5082700;28;20221;-78
2022/05/12 08:31:27;;;;;;;6.30;5.63;;;26.30;99.10;;;;;;5079364;28;20228;-78
2022/05/12 08:33:54;;;;;;;5.80;5.30;;;26.40;98.30;;;;;;5087349;28;20654;-79
2022/05/12 08:36:21;;;;;;;5.83;5.43;;;26.40;98.20;;;;;;5083120;28;20198;-78
2022/05/12 08:38:48;;;;;;;8.90;6.10;;;27.10;98.00;;;;;;5085206;28;20310;-78
2022/05/12 08:41:25;;;;;;;4.60;4.10;;;27.60;96.20;;;;;;5082832;28;20293;-79
2022/05/12 08:43:59;;;;;;;6.70;4.87;;;28.10;96.80;;;;;;5085564;28;20718;-78
2022/05/12 08:46:29;;;;;;;5.80;5.20;;;28.60;95.90;;;;;;5086429;28;20222;-78
2022/05/12 08:49:04;;;;;;;5.90;5.30;;;28.80;95.30;;;;;;5082710;28;20710;-77
2022/05/12 08:51:34;;;;;;;8.60;6.03;;;28.80;95.20;;;;;;5084305;28;20202;-79
2022/05/12 08:54:04;;;;;;;6.00;5.10;;;28.40;94.80;;;;;;5085959;28;20239;-77
2022/05/12 08:56:32;;;;;;;6.30;4.93;;;28.30;95.90;;;;;;5081624;28;20277;-78
2022/05/12 08:59:02;;;;;;;6.77;5.10;;;28.60;96.30;;;;;;5083450;28;20179;-79
2022/05/12 09:01:37;;;;;;;6.07;5.43;;;29.00;95.20;;;;;;5084775;28;20190;-79
2022/05/12 09:04:24;;;;;;;5.80;5.30;;;28.90;94.70;;;;;;5083053;28;20222;-78
2022/05/12 09:07:01;;;;;;;5.83;5.23;;;28.90;95.40;;;;;;5068152;28;20185;-78
2022/05/12 09:09:33;;;;;;;6.90;5.60;;;29.20;95.60;;;;;;5078758;28;20300;-79
2022/05/12 09:12:10;;;;;;;7.70;5.70;;;29.20;94.60;;;;;;5086391;28;20212;-79
2022/05/12 09:14:46;;;;;;;6.13;5.50;;;29.20;94.90;;;;;;5073329;28;20236;-78
2022/05/12 09:17:19;;;;;;;6.07;5.57;;;29.20;95.10;;;;;;5081293;28;20571;-79
2022/05/12 09:19:46;;;;;;;6.30;5.80;;;29.20;94.80;;;;;;5084469;28;20182;-78
2022/05/12 09:22:13;;;;;;;6.23;5.63;;;29.30;94.70;;;;;;5082933;28;20195;-78
2022/05/12 09:24:41;;;;;;;5.70;5.10;;;29.30;94.20;;;;;;5084314;28;20246;-78
2022/05/12 09:27:10;;;;;;;5.53;5.00;;;29.20;95.20;;;;;;5083552;28;20213;-78
2022/05/12 09:29:46;;;;;;;6.03;5.30;;;29.50;94.10;;;;;;5071225;28;20214;-79
2022/05/12 09:32:22;;;;;;;6.07;5.43;;;29.60;93.80;;;;;;5078138;28;20709;-78
2022/05/12 09:35:08;;;;;;;6.83;5.57;;;29.40;92.80;;;;;;5080899;28;20686;-79
2022/05/12 09:37:36;;;;;;;6.90;5.70;;;29.10;92.90;;;;;;5085923;28;20189;-79
2022/05/12 09:40:19;;;;;;;8.27;5.63;;;28.90;93.20;;;;;;5082391;28;20190;-78
2022/05/12 09:42:48;;;;;;;6.33;5.80;;;29.00;93.80;;;;;;5075774;28;20193;-77
2022/05/12 09:45:26;;;;;;;6.23;5.50;;;28.90;95.20;;;;;;5082835;28;20216;-79
2022/05/12 09:48:10;;;;;;;6.40;5.30;;;29.00;93.40;;;;;;5086049;28;20197;-78
2022/05/12 09:50:37;;;;;;;7.33;5.63;;;28.60;94.50;;;;;;5083933;28;20217;-78
2022/05/12 09:53:07;;;;;;;8.17;5.73;;;28.40;93.90;;;;;;5082866;28;20272;-79
2022/05/12 09:55:38;;;;;;;6.43;5.53;;;28.10;95.30;;;;;;5077547;28;20288;-79
2022/05/12 09:58:07;;;;;;;5.53;4.50;;;28.00;95.50;;;;;;5078643;28;20190;-78
2022/05/12 10:00:39;;;;;;;5.07;3.90;;;28.10;95.20;;;;;;5083823;28;20637;-78
2022/05/12 10:09:00;;;;;;;5.20;3.70;;;28.00;94.40;;;;;;5075231;28;20217;-78
2022/05/12 10:11:31;;;;;;;6.47;5.87;;;27.50;95.10;;;;;;5084320;28;20375;-78
2022/05/12 10:14:00;;;;;;;7.40;6.80;;;27.70;96.20;;;;;;5082290;28;20671;-79
2022/05/12 10:16:32;;;;;;;7.60;6.90;;;27.90;95.50;;;;;;5084038;28;20227;-79
2022/05/12 10:19:03;;;;;;;9.23;7.33;;;27.90;95.60;;;;;;5081368;28;20193;-79
2022/05/12 10:21:38;;;;;;;8.90;7.20;;;27.80;94.90;;;;;;5077570;28;20773;-78
2022/05/12 10:24:16;;;;;;;8.17;7.47;;;27.80;95.10;;;;;;5077414;28;20690;-79
2022/05/12 10:26:48;;;;;;;7.47;6.80;;;27.90;95.60;;;;;;5076455;28;20213;-79
2022/05/12 10:29:28;;;;;;;7.77;6.97;;;28.00;95.30;;;;;;5081053;28;20683;-79
2022/05/12 10:32:00;;;;;;;7.90;7.10;;;28.10;93.90;;;;;;5086150;28;20201;-79
2022/05/12 10:34:41;;;;;;;7.87;7.17;;;28.00;94.00;;;;;;5084072;28;20214;-79
2022/05/12 10:37:26;;;;;;;7.87;7.17;;;28.10;94.00;;;;;;5077943;28;20199;-79
2022/05/12 10:40:02;;;;;;;7.47;6.77;;;27.90;93.70;;;;;;5080960;28;20225;-79
2022/05/12 10:42:42;;;;;;;7.03;6.53;;;27.80;94.80;;;;;;5083303;28;20277;-78
2022/05/12 10:45:20;;;;;;;4.60;3.93;;;27.70;95.00;;;;;;5080771;28;20222;-79
2022/05/12 10:48:17;;;;;;;5.53;4.33;;;27.60;94.80;;;;;;5072260;28;20190;-78
2022/05/12 10:50:51;;;;;;;6.03;3.73;;;27.30;95.50;;;;;;5048738;28;20307;-79
2022/05/12 10:53:29;;;;;;;6.37;4.10;;;27.30;95.90;;;;;;5085561;28;20632;-78
2022/05/12 10:56:08;;;;;;;5.83;3.93;;;27.50;94.70;;;;;;5082324;28;20251;-78
2022/05/12 10:58:42;;;;;;;4.97;3.87;;;27.70;94.90;;;;;;5079430;28;20229;-79
2022/05/12 11:01:16;;;;;;;6.30;4.20;;;27.70;94.80;;;;;;5078450;28;20195;-78
2022/05/12 11:03:51;;;;;;;6.27;3.80;;;27.60;94.80;;;;;;5073562;28;20235;-78
2022/05/12 11:06:21;;;;;;;4.13;3.60;;;27.60;95.40;;;;;;5081733;28;20194;-77
2022/05/12 11:08:52;;;;;;;5.47;4.03;;;27.60;95.60;;;;;;5074589;28;20191;-78
2022/05/12 11:11:23;;;;;;;6.97;5.23;;;27.50;95.00;;;;;;5074505;28;20218;-78
2022/05/12 11:13:58;;;;;;;5.57;4.03;;;27.50;95.70;;;;;;5084080;28;20198;-79
2022/05/12 11:16:30;;;;;;;5.60;3.77;;;27.70;95.30;;;;;;5082231;28;20208;-79
2022/05/12 11:19:06;;;;;;;6.23;4.00;;;27.70;95.10;;;;;;5083095;28;20310;-79
2022/05/12 11:21:39;;;;;;;4.83;4.00;;;27.60;94.80;;;;;;5078957;28;20668;-78
2022/05/12 11:24:23;;;;;;;4.47;3.90;;;27.60;95.50;;;;;;5079017;28;20218;-79
2022/05/12 11:27:22;;;;;;;4.17;3.77;;;27.60;95.10;;;;;;5074404;28;20516;-78
2022/05/12 11:30:12;;;;;;;6.60;3.67;;;27.70;95.20;;;;;;5073053;28;20305;-79
2022/05/12 11:32:50;;;;;;;4.60;4.00;;;27.80;95.00;;;;;;5083728;28;20247;-79
2022/05/12 11:35:21;;;;;;;4.50;3.57;;;27.80;95.20;;;;;;5079333;28;20678;-78
2022/05/12 11:38:00;;;;;;;5.87;3.93;;;27.70;95.30;;;;;;5081707;28;20186;-78
2022/05/12 11:40:52;;;;;;;5.93;3.40;;;27.60;94.90;;;;;;5083390;28;20248;-79
2022/05/12 11:47:13;;;;;;;5.67;5.10;;;27.30;95.40;;;;;;5079704;28;20190;-79
2022/05/12 11:50:07;;;;;;;5.77;5.27;;;26.90;96.40;;;;;;5000429;28;20375;-79
2022/05/12 11:52:47;;;;;;;6.20;4.97;;;26.90;96.40;;;;;;5001685;28;20224;-78
2022/05/12 11:55:25;;;;;;;4.43;3.80;;;26.90;95.90;;;;;;5065853;28;20224;-78
2022/05/12 11:58:07;;;;;;;4.63;4.23;;;26.90;95.70;;;;;;5081324;28;20288;-79
2022/05/12 12:01:02;;;;;;;8.10;7.40;;;27.10;96.00;;;;;;5083456;28;20192;-78
2022/05/12 12:03:56;;;;;;;7.17;6.57;;;27.40;95.30;;;;;;5081739;28;20198;-79
2022/05/12 12:06:42;;;;;;;8.10;7.50;;;27.60;95.00;;;;;;5079611;28;20287;-79
2022/05/12 12:09:52;;;;;;;7.60;6.83;;;27.50;95.20;;;;;;5076613;28;20277;-76
2022/05/12 12:13:04;;;;;;;5.93;4.53;;;27.60;95.00;;;;;;5078578;28;20194;-77
2022/05/12 12:15:45;;;;;;;5.00;4.33;;;28.00;94.50;;;;;;5095996;28;20312;-76
2022/05/12 12:18:45;;;;;;;7.43;6.73;;;28.00;95.10;;;;;;5078628;28;20206;-77
2022/05/12 12:21:36;;;;;;;7.37;6.77;;;28.10;93.90;;;;;;5075253;28;20268;-79
2022/05/12 12:24:13;;;;;;;7.10;6.50;;;28.10;93.90;;;;;;5075560;28;20210;-78
2022/05/12 12:26:44;;;;;;;8.13;6.67;;;28.00;94.40;;;;;;5071291;28;20186;-79
2022/05/12 12:29:18;;;;;;;9.20;7.03;;;28.00;94.50;;;;;;5076735;28;20194;-78
2022/05/12 12:31:47;;;;;;;6.00;5.10;;;28.00;94.50;;;;;;5082463;28;20233;-79
2022/05/12 12:34:18;;;;;;;5.63;5.07;;;27.80;93.90;;;;;;5083005;28;20584;-78
2022/05/12 12:37:07;;;;;;;5.60;5.00;;;27.60;94.30;;;;;;5079274;28;20495;-79
2022/05/12 12:39:46;;;;;;;6.17;5.57;;;27.40;94.60;;;;;;5077015;28;20194;-79
2022/05/12 12:42:42;;;;;;;6.57;5.60;;;27.50;92.60;;;;;;5076522;28;20286;-78
2022/05/12 12:45:14;;;;;;;7.10;6.40;;;27.80;94.00;;;;;;5075850;28;20214;-79
2022/05/12 12:47:54;;;;;;;6.13;4.10;;;27.70;94.00;;;;;;5072269;28;20219;-79
2022/05/12 12:50:43;;;;;;;4.73;4.23;;;27.50;93.60;;;;;;5079779;28;20209;-79
2022/05/12 12:53:16;;;;;;;6.27;4.60;;;27.50;93.40;;;;;;5079916;28;20202;-78
2022/05/12 12:58:37;;;;;;;5.47;4.23;;;27.50;93.50;;;;;;5082846;28;20187;-79
2022/05/12 13:01:12;;;;;;;6.53;4.30;;;27.60;94.50;;;;;;5075431;28;20187;-78
2022/05/12 13:03:46;;;;;;;6.53;5.93;;;27.60;93.80;;;;;;5081172;28;20701;-78
2022/05/12 13:06:17;;;;;;;7.93;7.13;;;27.70;93.70;;;;;;5085204;28;20225;-79
2022/05/12 13:08:45;;;;;;;7.70;4.70;;;27.70;93.50;;;;;;5081041;28;20186;-79
2022/05/12 13:11:20;;;;;;;5.83;3.90;;;27.60;93.20;;;;;;5078494;28;20596;-79
2022/05/12 13:13:51;;;;;;;7.57;6.93;;;27.70;93.30;;;;;;5081602;28;20255;-79
2022/05/12 13:16:21;;;;;;;7.47;6.70;;;27.60;92.60;;;;;;5084096;28;20383;-78
2022/05/12 13:18:50;;;;;;;7.90;7.30;;;27.60;92.20;;;;;;5085846;28;20190;-79
2022/05/12 13:21:23;;;;;;;6.03;4.20;;;27.50;93.30;;;;;;5083838;28;20197;-78
2022/05/12 13:24:02;;;;;;;5.60;3.93;;;27.60;93.30;;;;;;5085041;28;20277;-79
2022/05/12 13:26:31;;;;;;;4.20;3.80;;;27.70;93.60;;;;;;5084268;28;20209;-79
2022/05/12 13:29:00;;;;;;;5.40;4.27;;;27.60;93.30;;;;;;5083102;28;20193;-78
2022/05/12 13:31:35;;;;;;;5.37;4.17;;;27.70;93.10;;;;;;5079749;28;20214;-78
2022/05/12 13:34:05;;;;;;;5.70;3.77;;;27.70;92.50;;;;;;5080436;28;20218;-78